Welcome to Northern Hawkes Bay. New Zealand.
PWS Header
      nz Flag



Hit Counter


W3C Valid W3C Valid logo


    Wairoa

Select any of the Stations below to visit their websites.










Historic Data from Weather Underground
Select the location of interest below. Wairoa is the default. Please have patience, this Data is slow to load in.
Northern Hawkes Bay Historical Data
Daily Summary for March 11, 2017 Units:  English    Metric   Both
« Previous Day
Next Day »
Daily Weekly Monthly Yearly Custom
  High: Low: Average:
Temperature: 77.9 °F 63.7 °F 69.3 °F
Dew Point: 71.8 °F 62.1 °F 66 °F
Humidity: 99% 72% 90%
Wind Speed: 9.2mph 0mph 0.6mph
Wind Gust: 13.6mph - -
Wind- - ENE
Pressure: 29.9 in 29.6 in -
Precipitation: 0.39 in    
Historical Graphs
 
 
Tabular Data for March 11, 2017
Time Temperature Dew Point Pressure Wind Wind Speed Wind Gust Humidity Rainfall Rate (Hourly) solar
00:04 66 °F 62.1 °F 29.9 in Calm     87% 0 in 0 W/m2
00:09 66 °F 62.1 °F 29.9 in Calm     87% 0 in 0 W/m2
00:14 66 °F 62.4 °F 29.9 in Calm     88% 0 in 0 W/m2
00:19 65.8 °F 62.2 °F 29.9 in Calm     88% 0 in 0 W/m2
00:24 66 °F 62.8 °F 29.9 in Calm     89% 0 in 0 W/m2
00:29 65.8 °F 62.4 °F 29.9 in Calm     89% 0 in 0 W/m2
00:34 65.8 °F 62.8 °F 29.9 in Calm     90% 0 in 0 W/m2
00:39 65.8 °F 62.8 °F 29.9 in Calm     90% 0 in 0 W/m2
00:44 65.7 °F 62.8 °F 29.9 in Calm     90% 0 in 0 W/m2
00:49 65.7 °F 62.8 °F 29.9 in Calm     90% 0 in 0 W/m2
00:54 65.5 °F 62.8 °F 29.9 in Calm     91% 0 in 0 W/m2
00:59 65.3 °F 62.6 °F 29.9 in Calm   1.6 mph 91% 0 in 0 W/m2
01:04 65.3 °F 62.6 °F 29.9 in Calm   1.6 mph 91% 0 in 0 W/m2
01:09 65.3 °F 62.6 °F 29.9 in Calm   1.6 mph 91% 0 in 0 W/m2
01:14 65.3 °F 63 °F 29.9 in Calm     92% 0 in 0 W/m2
01:19 65.3 °F 63 °F 29.9 in Calm     92% 0 in 0 W/m2
01:24 65.3 °F 63.1 °F 29.9 in Calm     93% 0 in 0 W/m2
01:29 65.3 °F 63.1 °F 29.9 in Calm     93% 0 in 0 W/m2
01:34 65.1 °F 63.1 °F 29.9 in Calm     93% 0 in 0 W/m2
01:39 65.3 °F 63.7 °F 29.9 in Calm     94% 0 in 0 W/m2
01:44 65.1 °F 63.3 °F 29.9 in Calm     94% 0 in 0 W/m2
01:49 64.9 °F 63.1 °F 29.9 in Calm     94% 0.01 in 0 W/m2
01:54 64.9 °F 63.1 °F 29.9 in Calm     94% 0.01 in 0 W/m2
01:59 64.9 °F 63.1 °F 29.9 in Calm     94% 0.02 in 0 W/m2
02:04 64.9 °F 63.5 °F 29.9 in Calm     95% 0.02 in 0 W/m2
02:09 64.9 °F 63.5 °F 29.9 in Calm   0.7 mph 95% 0.04 in 0 W/m2
02:14 64.8 °F 63.7 °F 29.9 in Calm   0.7 mph 96% 0.04 in 0 W/m2
02:19 64.6 °F 63.3 °F 29.9 in Calm     96% 0.05 in 0 W/m2
02:24 64.6 °F 63.3 °F 29.9 in Calm     96% 0.06 in 0 W/m2
02:29 64.6 °F 63.3 °F 29.9 in Calm     96% 0.06 in 0 W/m2
02:34 64.6 °F 63.7 °F 29.9 in Calm     97% 0.07 in 0 W/m2
02:39 64.4 °F 63.7 °F 29.9 in Calm     97% 0.07 in 0 W/m2
02:44 64.4 °F 63.7 °F 29.9 in Calm   0.7 mph 97% 0.07 in 0 W/m2
02:49 64.2 °F 63.3 °F 29.9 in Calm   0.7 mph 97% 0.07 in 0 W/m2
02:54 64.2 °F 63.3 °F 29.9 in Calm   0.7 mph 97% 0.07 in 0 W/m2
02:59 64 °F 63.1 °F 29.9 in Calm     97% 0.07 in 0 W/m2
03:04 64 °F 63.1 °F 29.8 in Calm     97% 0.07 in 0 W/m2
03:09 64 °F 63.1 °F 29.8 in Calm     97% 0.07 in 0 W/m2
03:14 64 °F 63.1 °F 29.8 in Calm     97% 0.07 in 0 W/m2
03:19 64 °F 63.1 °F 29.8 in Calm     97% 0.07 in 0 W/m2
03:24 64 °F 63.1 °F 29.8 in Calm     97% 0.07 in 0 W/m2
03:29 64 °F 63.1 °F 29.8 in Calm     97% 0.07 in 0 W/m2
03:34 64.2 °F 63.3 °F 29.8 in Calm     97% 0.07 in 0 W/m2
03:39 64.2 °F 63.3 °F 29.8 in Calm   1.6 mph 97% 0.08 in 0 W/m2
03:44 64.2 °F 63.3 °F 29.8 in Calm   1.6 mph 97% 0.09 in 0 W/m2
03:49 64.2 °F 63.3 °F 29.8 in Calm   0.7 mph 97% 0.09 in 0 W/m2
03:59 64.2 °F 63.3 °F 29.8 in Calm   0.7 mph 97% 0.08 in 0 W/m2
04:04 64.2 °F 63.3 °F 29.8 in Calm   0.7 mph 97% 0.09 in 0 W/m2
04:09 64.2 °F 63.3 °F 29.8 in Calm     97% 0.08 in 0 W/m2
04:14 64 °F 63.1 °F 29.8 in Calm     97% 0.07 in 0 W/m2
04:19 64 °F 63.1 °F 29.8 in Calm     97% 0.07 in 0 W/m2
04:24 64 °F 63.1 °F 29.8 in Calm     97% 0.06 in 0 W/m2
04:29 64 °F 63.1 °F 29.8 in Calm     97% 0.06 in 0 W/m2
04:35 64 °F 63.1 °F 29.8 in Calm     97% 0.04 in 0 W/m2
04:40 64 °F 63.1 °F 29.8 in Calm     97% 0.04 in 0 W/m2
04:45 64 °F 63.1 °F 29.8 in Calm     97% 0.02 in 0 W/m2
04:50 64 °F 63.1 °F 29.8 in Calm     97% 0.01 in 0 W/m2
04:55 64 °F 63.1 °F 29.8 in Calm     97% 0.01 in 0 W/m2
05:00 64 °F 63.1 °F 29.8 in Calm     97% 0 in 0 W/m2
05:05 63.9 °F 63 °F 29.8 in Calm     97% 0 in 0 W/m2
05:10 63.9 °F 63 °F 29.8 in Calm     97% 0 in 0 W/m2
05:15 63.9 °F 63 °F 29.8 in Calm     97% 0 in 0 W/m2
05:21 63.7 °F 62.8 °F 29.8 in Calm     97% 0 in 0 W/m2
05:26 63.7 °F 62.8 °F 29.8 in Calm     97% 0 in 0 W/m2
05:31 63.7 °F 62.8 °F 29.8 in Calm     97% 0 in 0 W/m2
05:36 63.9 °F 63 °F 29.8 in Calm   1.6 mph 97% 0 in 0 W/m2
05:41 63.9 °F 63 °F 29.8 in Calm   1.6 mph 97% 0 in 0 W/m2
05:46 63.9 °F 63 °F 29.8 in Calm   1.6 mph 97% 0 in 0 W/m2
05:51 63.9 °F 63 °F 29.8 in Calm     97% 0 in 0 W/m2
05:52 63.9 °F 63 °F 29.8 in Calm     97% 0 in 0 W/m2
05:57 63.9 °F 63 °F 29.8 in Calm     97% 0 in 0 W/m2
06:02 63.9 °F 63 °F 29.7 in Calm     97% 0 in 0 W/m2
06:07 63.9 °F 63 °F 29.8 in Calm     97% 0 in 0 W/m2
06:12 63.9 °F 63 °F 29.7 in Calm     97% 0 in 0 W/m2
06:17 63.9 °F 63 °F 29.8 in Calm     97% 0 in 0 W/m2
06:22 63.9 °F 63 °F 29.7 in Calm     97% 0 in 0 W/m2
06:27 63.9 °F 63 °F 29.7 in Calm     97% 0 in 0 W/m2
06:32 63.9 °F 63 °F 29.7 in Calm     97% 0 in 0 W/m2
06:37 64 °F 63.1 °F 29.7 in Calm     97% 0 in 0 W/m2
06:42 63.9 °F 63 °F 29.7 in Calm     97% 0.01 in 0 W/m2
06:47 63.9 °F 63 °F 29.7 in Calm     97% 0.01 in 0 W/m2
06:52 63.9 °F 63 °F 29.7 in Calm     97% 0.01 in 0 W/m2
06:57 63.9 °F 63 °F 29.7 in Calm     97% 0.01 in 0 W/m2
07:02 63.9 °F 63 °F 29.7 in Calm     97% 0.01 in 0 W/m2
07:07 63.9 °F 63 °F 29.7 in Calm     97% 0.01 in 0 W/m2
07:12 63.9 °F 63 °F 29.7 in Calm     97% 0.01 in 0 W/m2
07:17 63.9 °F 63 °F 29.7 in Calm     97% 0.01 in 0 W/m2
07:22 63.9 °F 63 °F 29.7 in NW 0.7 mph 1.6 mph 97% 0.02 in 1 W/m2
07:27 63.9 °F 63 °F 29.7 in Calm   1.6 mph 97% 0.04 in 2 W/m2
07:32 63.9 °F 63 °F 29.8 in Calm   1.6 mph 97% 0.04 in 2 W/m2
07:37 63.9 °F 63 °F 29.7 in Calm   2.2 mph 97% 0.05 in 4 W/m2
07:43 63.9 °F 63 °F 29.7 in Calm   2.2 mph 97% 0.05 in 3 W/m2
07:48 63.9 °F 63 °F 29.7 in Calm   1.6 mph 97% 0.06 in 8 W/m2
07:53 63.9 °F 63 °F 29.8 in Calm   1.6 mph 97% 0.07 in 10 W/m2
07:58 63.9 °F 63 °F 29.8 in Calm     97% 0.07 in 9 W/m2
08:03 63.9 °F 63 °F 29.7 in Calm   3.1 mph 97% 0.08 in 11 W/m2
08:08 64 °F 63.1 °F 29.7 in Calm   3.1 mph 97% 0.08 in 13 W/m2
08:13 64 °F 63.1 °F 29.7 in Calm   0.7 mph 97% 0.09 in 12 W/m2
08:18 64 °F 63.1 °F 29.7 in Calm     97% 0.12 in 12 W/m2
08:23 64.2 °F 63.3 °F 29.8 in Calm     97% 0.12 in 14 W/m2
08:28 64.2 °F 63.3 °F 29.8 in Calm     97% 0.13 in 19 W/m2
08:33 64.2 °F 63.3 °F 29.7 in Calm     97% 0.13 in 46 W/m2
08:38 64.4 °F 64 °F 29.7 in Calm     99% 0.12 in 48 W/m2
08:43 64.6 °F 64.2 °F 29.7 in Calm     99% 0.12 in 47 W/m2
08:48 64.6 °F 64.2 °F 29.7 in Calm     99% 0.11 in 50 W/m2
08:53 64.6 °F 64.2 °F 29.7 in Calm     99% 0.09 in 50 W/m2
08:58 64.8 °F 64.6 °F 29.7 in Calm     99% 0.09 in 66 W/m2
09:03 64.9 °F 64.8 °F 29.7 in Calm     99% 0.08 in 73 W/m2
09:08 65.1 °F 64.9 °F 29.7 in Calm     99% 0.08 in 85 W/m2
09:13 65.3 °F 64.9 °F 29.7 in Calm     99% 0.07 in 91 W/m2
09:18 65.7 °F 65.5 °F 29.7 in Calm     99% 0.05 in 92 W/m2
09:23 65.7 °F 65.5 °F 29.7 in Calm     99% 0.04 in 96 W/m2
09:28 66 °F 65.8 °F 29.7 in Calm     99% 0.02 in 91 W/m2
09:33 66.2 °F 65.8 °F 29.7 in Calm     99% 0.02 in 85 W/m2
09:38 66.4 °F 66 °F 29.7 in Calm     99% 0.02 in 85 W/m2
09:43 66.6 °F 66.4 °F 29.7 in Calm     99% 0.01 in 75 W/m2
09:48 66.6 °F 66.4 °F 29.7 in Calm     99% 0.01 in 78 W/m2
09:53 66.7 °F 66.6 °F 29.7 in Calm     99% 0.01 in 89 W/m2
09:58 66.9 °F 66.7 °F 29.7 in Calm     99% 0.01 in 95 W/m2
10:03 67.1 °F 66.7 °F 29.7 in Calm     99% 0.01 in 105 W/m2
10:08 67.3 °F 66.9 °F 29.7 in Calm     99% 0.01 in 127 W/m2
10:13 67.6 °F 67.5 °F 29.7 in Calm     99% 0.01 in 131 W/m2
10:18 67.6 °F 67.5 °F 29.7 in Calm   4.5 mph 99% 0.01 in 133 W/m2
10:24 67.8 °F 67.6 °F 29.7 in Calm   3.8 mph 99% 0.01 in 125 W/m2
10:29 68.2 °F 67.8 °F 29.7 in Calm   2.2 mph 99% 0 in 106 W/m2
10:34 68.4 °F 68.2 °F 29.7 in Calm     99% 0 in 87 W/m2
10:39 68.4 °F 68.2 °F 29.7 in Calm     99% 0 in 95 W/m2
10:44 68.5 °F 68.4 °F 29.7 in Calm     99% 0 in 84 W/m2
10:49 68.5 °F 68.4 °F 29.7 in Calm     99% 0 in 92 W/m2
10:54 68.5 °F 68.4 °F 29.7 in Calm     99% 0 in 93 W/m2
10:59 68.7 °F 68.5 °F 29.7 in Calm     99% 0 in 105 W/m2
11:04 68.9 °F 68.5 °F 29.7 in Calm     99% 0 in 105 W/m2
11:09 69.3 °F 69.1 °F 29.7 in Calm     99% 0 in 133 W/m2
11:14 69.4 °F 69.3 °F 29.7 in Calm     99% 0 in 138 W/m2
11:19 69.8 °F 69.3 °F 29.7 in Calm     98% 0 in 145 W/m2
11:24 70.2 °F 69.6 °F 29.7 in Calm     98% 0 in 149 W/m2
11:29 70.3 °F 69.8 °F 29.7 in Calm     98% 0 in 144 W/m2
11:34 70.3 °F 69.8 °F 29.7 in Calm     98% 0 in 138 W/m2
11:39 70.2 °F 69.6 °F 29.7 in Calm     98% 0 in 135 W/m2
11:44 70.3 °F 69.8 °F 29.7 in Calm     98% 0 in 131 W/m2
11:49 70.9 °F 70.3 °F 29.7 in Calm     98% 0 in 119 W/m2
11:54 71.1 °F 70.5 °F 29.7 in Calm     98% 0 in 135 W/m2
11:59 71.4 °F 70.9 °F 29.7 in Calm     98% 0 in 143 W/m2
12:04 71.2 °F 70.7 °F 29.7 in Calm     98% 0 in 157 W/m2
12:09 71.6 °F 70.7 °F 29.7 in Calm     97% 0 in 176 W/m2
12:14 72 °F 71.1 °F 29.7 in Calm     97% 0 in 189 W/m2
12:19 72.5 °F 71.6 °F 29.7 in Calm     97% 0 in 170 W/m2
12:24 72.3 °F 71.4 °F 29.7 in Calm     97% 0 in 210 W/m2
12:29 72.7 °F 71.8 °F 29.7 in Calm     97% 0 in 225 W/m2
12:34 73 °F 71.6 °F 29.7 in Calm     95% 0 in 204 W/m2
12:39 73.4 °F 71.6 °F 29.7 in Calm     94% 0 in 184 W/m2
12:41 73.4 °F 71.6 °F 29.7 in Calm     94% 0 in 187 W/m2
12:46 73.6 °F 71.2 °F 29.7 in Calm     92% 0 in 181 W/m2
12:51 73.8 °F 70.7 °F 29.7 in Calm     90% 0 in 158 W/m2
12:56 73.9 °F 70.5 °F 29.7 in Calm     89% 0 in 146 W/m2
13:01 73.8 °F 70 °F 29.7 in Calm     88% 0 in 153 W/m2
13:06 73.8 °F 70 °F 29.7 in NNE 1.6 mph 3.1 mph 88% 0 in 142 W/m2
13:11 73.6 °F 70.2 °F 29.7 in NE 1.6 mph 3.8 mph 89% 0 in 140 W/m2
13:16 73.4 °F 70 °F 29.7 in ENE 2.2 mph 4.5 mph 89% 0 in 153 W/m2
13:21 73.4 °F 70 °F 29.7 in Calm   4.5 mph 89% 0 in 154 W/m2
13:26 73.6 °F 70.2 °F 29.7 in Calm   3.1 mph 89% 0 in 138 W/m2
13:31 73.8 °F 70.3 °F 29.7 in Calm     89% 0 in 137 W/m2
13:36 73.6 °F 69.8 °F 29.7 in Calm   5.4 mph 88% 0 in 145 W/m2
13:41 73.8 °F 70 °F 29.7 in Calm   5.4 mph 88% 0 in 167 W/m2
13:46 73.8 °F 69.6 °F 29.7 in Calm   3.8 mph 87% 0 in 161 W/m2
13:51 73.9 °F 70 °F 29.7 in Calm   5.4 mph 87% 0 in 173 W/m2
13:56 74.1 °F 69.6 °F 29.7 in Calm   5.4 mph 86% 0 in 130 W/m2
14:01 74.1 °F 69.6 °F 29.7 in Calm   1.6 mph 86% 0 in 147 W/m2
14:06 74.1 °F 69.6 °F 29.7 in NNE 3.1 mph 3.8 mph 86% 0 in 142 W/m2
14:12 74.1 °F 69.4 °F 29.7 in Calm   4.5 mph 85% 0 in 111 W/m2
14:17 74.1 °F 69.4 °F 29.7 in NNE 3.8 mph 7.6 mph 85% 0.01 in 165 W/m2
14:22 73.8 °F 69.4 °F 29.7 in NE 0.7 mph 7.6 mph 86% 0.01 in 181 W/m2
14:27 73.6 °F 69.4 °F 29.7 in NE 3.1 mph 7.6 mph 87% 0.01 in 147 W/m2
14:32 73.4 °F 69.3 °F 29.7 in NE 2.2 mph 6.9 mph 87% 0.01 in 115 W/m2
14:37 73.2 °F 68.7 °F 29.7 in NNE 0.7 mph 5.4 mph 86% 0.01 in 124 W/m2
14:42 73.2 °F 68.7 °F 29.7 in North 2.2 mph 6 mph 86% 0.01 in 118 W/m2
14:47 73.2 °F 69.3 °F 29.7 in Calm   6 mph 87% 0.01 in 113 W/m2
14:52 73.2 °F 68.7 °F 29.7 in North 2.2 mph 5.4 mph 86% 0.01 in 104 W/m2
14:57 73.4 °F 69.3 °F 29.7 in Calm   5.4 mph 87% 0.01 in 113 W/m2
15:02 73.8 °F 69.6 °F 29.7 in Calm   4.5 mph 87% 0.01 in 216 W/m2
15:04 73.9 °F 70 °F 29.7 in Calm     87% 0.01 in 195 W/m2
15:09 74.3 °F 70.2 °F 29.7 in Calm     87% 0.01 in 163 W/m2
15:14 74.8 °F 70.9 °F 29.7 in Calm     87% 0 in 129 W/m2
15:18 75 °F 70.5 °F 29.7 in Calm     86% 0 in 177 W/m2
15:23 75.2 °F 70.2 °F 29.7 in Calm     84% 0 in 266 W/m2
15:28 75.7 °F 70.3 °F 29.6 in Calm     83% 0 in 186 W/m2
15:33 76.1 °F 70.3 °F 29.7 in NE 3.8 mph 4.5 mph 82% 0 in 182 W/m2
15:38 75.9 °F 69.6 °F 29.6 in Calm   4.5 mph 81% 0 in 155 W/m2
15:43 76.1 °F 70.3 °F 29.6 in Calm   4.5 mph 82% 0 in 162 W/m2
15:48 76.3 °F 70.2 °F 29.6 in Calm   2.2 mph 81% 0 in 140 W/m2
15:53 76.6 °F 70.3 °F 29.6 in Calm   2.2 mph 81% 0 in 132 W/m2
15:58 77 °F 70.3 °F 29.6 in Calm     80% 0 in 163 W/m2
16:03 77 °F 69.6 °F 29.6 in Calm     78% 0 in 161 W/m2
16:08 77 °F 69.6 °F 29.6 in Calm     78% 0 in 168 W/m2
16:13 77 °F 69.6 °F 29.6 in Calm     78% 0 in 198 W/m2
16:18 77.4 °F 70 °F 29.6 in Calm     78% 0 in 239 W/m2
16:23 77.9 °F 69.8 °F 29.6 in Calm   3.1 mph 76% 0 in 181 W/m2
16:28 77.9 °F 69.4 °F 29.6 in Calm   3.1 mph 75% 0 in 145 W/m2
16:33 77.5 °F 69.4 °F 29.6 in Calm   1.6 mph 76% 0 in 175 W/m2
16:38 77.2 °F 69.8 °F 29.6 in Calm   0.7 mph 78% 0 in 232 W/m2
16:43 77.4 °F 70 °F 29.6 in NNE 1.6 mph 3.8 mph 78% 0 in 203 W/m2
16:48 77.4 °F 69.6 °F 29.6 in NNE 3.1 mph 6 mph 77% 0 in 158 W/m2
16:53 77 °F 68.9 °F 29.6 in NNE 2.2 mph 6 mph 76% 0 in 135 W/m2
16:58 76.5 °F 69.1 °F 29.6 in NNE 3.1 mph 6.9 mph 78% 0 in 169 W/m2
17:03 76.3 °F 69.3 °F 29.6 in NNE 1.6 mph 7.6 mph 79% 0 in 152 W/m2
17:08 76.1 °F 69.3 °F 29.6 in NNE 3.1 mph 7.6 mph 79% 0 in 119 W/m2
17:13 75.9 °F 69.3 °F 29.6 in NNE 2.2 mph 6 mph 80% 0 in 122 W/m2
17:18 75.7 °F 69.3 °F 29.6 in NNE 1.6 mph 6 mph 80% 0 in 140 W/m2
17:23 75.7 °F 69.3 °F 29.6 in NNE 4.5 mph 6 mph 80% 0 in 157 W/m2
17:28 75.7 °F 68.7 °F 29.6 in NE 2.2 mph 9.2 mph 79% 0 in 146 W/m2
17:33 75.7 °F 68.4 °F 29.6 in NNE 1.6 mph 9.2 mph 78% 0 in 165 W/m2
17:38 75.7 °F 68.2 °F 29.6 in North 6 mph 7.6 mph 77% 0 in 147 W/m2
17:43 75.6 °F 67.1 °F 29.6 in North 7.6 mph 13.6 mph 75% 0 in 104 W/m2
17:48 75.6 °F 66.7 °F 29.6 in North 9.2 mph 13.6 mph 74% 0 in 103 W/m2
17:53 75.6 °F 66.4 °F 29.6 in North 6.9 mph 13.6 mph 73% 0 in 111 W/m2
17:58 75.4 °F 66.2 °F 29.6 in NNE 3.1 mph 13 mph 73% 0 in 118 W/m2
18:03 75.6 °F 66.4 °F 29.6 in NNE 3.1 mph 11.4 mph 73% 0 in 131 W/m2
18:08 75.6 °F 65.8 °F 29.6 in North 3.1 mph 9.2 mph 72% 0 in 106 W/m2
18:13 75.7 °F 66 °F 29.6 in North 1.6 mph 6 mph 72% 0 in 89 W/m2
18:18 75.6 °F 65.8 °F 29.6 in NNE 1.6 mph 8.3 mph 72% 0 in 90 W/m2
18:23 75.6 °F 66.4 °F 29.6 in NNE 1.6 mph 8.3 mph 73% 0 in 80 W/m2
18:28 75.4 °F 66.2 °F 29.6 in Calm   4.5 mph 73% 0 in 68 W/m2
18:33 75.4 °F 66.6 °F 29.6 in Calm   4.5 mph 74% 0 in 43 W/m2
18:38 75.2 °F 66.4 °F 29.6 in NE 0.7 mph 3.1 mph 74% 0 in 50 W/m2
18:43 74.7 °F 66.6 °F 29.6 in Calm   3.1 mph 76% 0 in 43 W/m2
18:48 74.3 °F 66.7 °F 29.6 in NE 0.7 mph 3.1 mph 77% 0 in 33 W/m2
18:53 74.1 °F 66.9 °F 29.6 in NNE 1.6 mph 3.1 mph 78% 0 in 18 W/m2
18:58 73.9 °F 67.1 °F 29.6 in Calm   3.1 mph 79% 0 in 25 W/m2
19:03 73.6 °F 66.7 °F 29.6 in North 3.8 mph 5.4 mph 79% 0 in 19 W/m2
19:08 73.4 °F 66.6 °F 29.6 in North 1.6 mph 7.6 mph 79% 0 in 18 W/m2
19:13 73.2 °F 66.7 °F 29.6 in North 3.1 mph 7.6 mph 80% 0 in 9 W/m2
19:18 73 °F 66.9 °F 29.6 in North 3.1 mph 5.4 mph 81% 0 in 6 W/m2
19:23 72.9 °F 66.7 °F 29.6 in NNE 3.1 mph 5.4 mph 81% 0 in 6 W/m2
19:28 72.7 °F 66.6 °F 29.6 in NNE 3.1 mph 4.5 mph 81% 0 in 7 W/m2
19:33 72.5 °F 66.4 °F 29.6 in NNE 1.6 mph 5.4 mph 81% 0 in 2 W/m2
19:38 72.3 °F 66.2 °F 29.6 in NNE 2.2 mph 6 mph 81% 0 in 0 W/m2
19:43 72.3 °F 66.2 °F 29.6 in North 2.2 mph 6.9 mph 81% 0 in 0 W/m2
19:48 72.1 °F 66 °F 29.6 in NNE 1.6 mph 6.9 mph 81% 0 in 0 W/m2
19:53 72 °F 65.8 °F 29.6 in NNE 2.2 mph 6.9 mph 81% 0 in 0 W/m2
19:58 72 °F 66.2 °F 29.6 in NNE 0.7 mph 6.9 mph 82% 0 in 0 W/m2
20:03 71.8 °F 66 °F 29.6 in North 0.7 mph 6 mph 82% 0 in 0 W/m2
20:08 71.4 °F 66 °F 29.6 in Calm   4.5 mph 83% 0 in 0 W/m2
20:10 71.4 °F 66 °F 29.6 in Calm   3.8 mph 83% 0 in 0 W/m2
20:15 71.2 °F 65.8 °F 29.6 in Calm   3.1 mph 83% 0 in 0 W/m2
20:20 71.1 °F 66 °F 29.6 in Calm     84% 0 in 0 W/m2
20:25 70.9 °F 65.8 °F 29.6 in NNW 0.7 mph 3.1 mph 84% 0 in 0 W/m2
20:30 70.7 °F 66 °F 29.6 in Calm   3.1 mph 85% 0 in 0 W/m2
20:35 70.5 °F 65.8 °F 29.6 in Calm   2.2 mph 85% 0 in 0 W/m2
20:40 70.3 °F 65.7 °F 29.6 in Calm     85% 0 in 0 W/m2
20:45 70.3 °F 65.7 °F 29.6 in Calm     85% 0 in 0 W/m2
20:50 70.2 °F 65.5 °F 29.6 in Calm     85% 0 in 0 W/m2
20:55 69.8 °F 65.5 °F 29.6 in Calm     86% 0 in 0 W/m2
21:00 69.8 °F 65.8 °F 29.6 in Calm     87% 0 in 0 W/m2
21:05 69.4 °F 65.8 °F 29.6 in Calm     88% 0 in 0 W/m2
21:10 69.3 °F 65.8 °F 29.6 in Calm     89% 0 in 0 W/m2
21:15 69.1 °F 65.7 °F 29.6 in Calm     89% 0 in 0 W/m2
21:31 70.2 °F 66 °F 29.6 in ENE 2.2 mph 6 mph 87% 0 in 0 W/m2
21:36 70.3 °F 66 °F 29.6 in Calm   6 mph 86% 0 in 0 W/m2
21:41 70.3 °F 66 °F 29.6 in Calm   3.8 mph 86% 0 in 0 W/m2
21:46 70.3 °F 65.7 °F 29.6 in ENE 3.1 mph 5.4 mph 85% 0 in 0 W/m2
21:51 70.2 °F 65.8 °F 29.6 in NE 3.1 mph 6.9 mph 86% 0 in 0 W/m2
21:56 70 °F 65.7 °F 29.6 in NE 3.8 mph 6.9 mph 86% 0 in 0 W/m2
22:01 70 °F 66 °F 29.6 in NE 2.2 mph 7.6 mph 87% 0 in 0 W/m2
22:06 70 °F 66 °F 29.6 in NE 2.2 mph 7.6 mph 87% 0 in 0 W/m2
22:11 69.8 °F 65.8 °F 29.6 in NNE 2.2 mph 7.6 mph 87% 0 in 0 W/m2
22:16 69.8 °F 65.8 °F 29.6 in NNE 2.2 mph 6 mph 87% 0 in 0 W/m2
22:21 69.8 °F 65.8 °F 29.6 in NNE 3.1 mph 5.4 mph 87% 0 in 0 W/m2
22:26 69.8 °F 65.8 °F 29.6 in NNE 2.2 mph 6.9 mph 87% 0 in 0 W/m2
22:31 69.8 °F 65.8 °F 29.6 in NNE 0.7 mph 6.9 mph 87% 0 in 0 W/m2
22:36 69.8 °F 65.8 °F 29.6 in Calm   6 mph 87% 0 in 0 W/m2
22:41 69.8 °F 65.8 °F 29.6 in Calm   4.5 mph 87% 0 in 0 W/m2
22:46 69.8 °F 65.5 °F 29.6 in Calm     86% 0 in 0 W/m2
22:51 69.8 °F 65.5 °F 29.6 in Calm   3.8 mph 86% 0 in 0 W/m2
22:56 69.8 °F 65.5 °F 29.6 in NNE 1.6 mph 5.4 mph 86% 0 in 0 W/m2
23:01 70 °F 65.3 °F 29.6 in North 3.1 mph 6 mph 85% 0 in 0 W/m2
23:06 70 °F 65.3 °F 29.6 in North 3.8 mph 6 mph 85% 0 in 0 W/m2
23:11 70 °F 65.3 °F 29.6 in Calm   6 mph 85% 0 in 0 W/m2
23:16 69.8 °F 65.1 °F 29.6 in NW 0.7 mph 5.4 mph 85% 0 in 0 W/m2
23:21 69.4 °F 65.5 °F 29.6 in SW 2.2 mph 3.8 mph 87% 0 in 0 W/m2
23:26 69.1 °F 65.5 °F 29.6 in Calm   3.8 mph 88% 0 in 0 W/m2
23:31 68.7 °F 65.1 °F 29.6 in Calm   3.8 mph 88% 0 in 0 W/m2
23:36 68.7 °F 65.5 °F 29.6 in Calm     89% 0 in 0 W/m2
23:41 68.7 °F 65.5 °F 29.6 in Calm     89% 0 in 0 W/m2
23:46 68.5 °F 65.1 °F 29.6 in Calm     89% 0 in 0 W/m2
23:51 68.2 °F 64.8 °F 29.6 in Calm     89% 0 in 0 W/m2
23:56 68.2 °F 64.8 °F 29.6 in Calm   2.2 mph 89% 0 in 0 W/m2
Northern Hawkes Bay. New Zealand Historic Data
Compliments of Weather Underground - 2 mb